createdAt,value
2018-03-27T00:02:13.285Z,4.90
2018-03-27T00:04:41.573Z,4.90
2018-03-27T00:07:09.169Z,4.90
2018-03-27T00:09:36.723Z,4.90
2018-03-27T00:12:05.000Z,4.90
2018-03-27T00:14:32.494Z,4.90
2018-03-27T00:17:00.055Z,4.90
2018-03-27T00:19:28.330Z,5.00
2018-03-27T00:21:55.845Z,5.00
2018-03-27T00:24:23.385Z,5.00
2018-03-27T00:27:00.224Z,5.00
2018-03-27T00:29:39.646Z,5.00
2018-03-27T00:32:19.035Z,5.00
2018-03-27T00:34:58.345Z,4.90
2018-03-27T00:37:37.857Z,4.90
2018-03-27T00:40:17.607Z,4.90
2018-03-27T00:42:57.818Z,4.90
2018-03-27T00:45:25.318Z,4.90
2018-03-27T00:47:52.822Z,4.90
2018-03-27T00:50:20.424Z,4.90
2018-03-27T00:52:47.965Z,4.90
2018-03-27T00:55:15.474Z,4.90
2018-03-27T00:57:42.976Z,4.90
2018-03-27T01:00:11.254Z,4.90
2018-03-27T01:02:38.783Z,4.90
2018-03-27T01:05:10.551Z,4.90
2018-03-27T01:07:38.813Z,4.90
2018-03-27T01:10:07.114Z,4.90
2018-03-27T01:12:34.715Z,4.90
2018-03-27T01:15:02.292Z,4.90
2018-03-27T01:17:30.047Z,4.90
2018-03-27T01:19:58.315Z,4.90
2018-03-27T01:22:26.057Z,4.80
2018-03-27T01:24:53.571Z,4.80
2018-03-27T01:27:21.821Z,4.80
2018-03-27T01:29:49.408Z,4.70
2018-03-27T01:32:16.937Z,4.70
2018-03-27T01:34:44.456Z,4.70
2018-03-27T01:37:13.667Z,4.70
2018-03-27T01:39:41.179Z,4.70
2018-03-27T01:42:08.771Z,4.70
2018-03-27T01:44:36.338Z,4.60
2018-03-27T01:47:03.853Z,4.50
2018-03-27T01:49:31.402Z,4.50
2018-03-27T01:51:58.904Z,4.50
2018-03-27T01:54:26.403Z,4.50
2018-03-27T01:56:53.983Z,4.50
2018-03-27T01:59:21.973Z,4.50
2018-03-27T02:01:49.496Z,4.50
2018-03-27T02:04:16.993Z,4.50
2018-03-27T02:06:44.505Z,4.50
2018-03-27T02:09:11.984Z,4.50
2018-03-27T02:11:45.310Z,4.50
2018-03-27T02:14:18.602Z,4.50
2018-03-27T02:16:52.029Z,4.50
2018-03-27T02:19:25.218Z,4.40
2018-03-27T02:21:52.208Z,4.50
2018-03-27T02:24:20.490Z,4.40
2018-03-27T02:26:49.316Z,4.30
2018-03-27T02:29:16.818Z,4.30
2018-03-27T02:31:44.384Z,4.30
2018-03-27T02:34:11.916Z,4.30
2018-03-27T02:36:39.400Z,4.30
2018-03-27T02:39:06.905Z,4.30
2018-03-27T02:41:35.091Z,4.30
2018-03-27T02:44:02.631Z,4.40
2018-03-27T02:46:30.328Z,4.40
2018-03-27T02:48:57.881Z,4.50
2018-03-27T02:51:25.356Z,4.50
2018-03-27T02:53:52.878Z,4.50
2018-03-27T02:56:21.134Z,4.50
2018-03-27T02:58:48.728Z,4.50
2018-03-27T03:01:16.292Z,4.60
2018-03-27T03:03:44.273Z,4.60
2018-03-27T03:06:11.762Z,4.60
2018-03-27T03:08:40.108Z,4.60
2018-03-27T03:11:08.382Z,4.60
2018-03-27T03:13:35.867Z,4.60
2018-03-27T03:16:03.406Z,4.60
2018-03-27T03:18:30.944Z,4.60
2018-03-27T03:20:58.520Z,4.60
2018-03-27T03:23:26.811Z,4.70
2018-03-27T03:25:54.480Z,4.60
2018-03-27T03:28:22.788Z,4.60
2018-03-27T03:30:50.305Z,4.60
2018-03-27T03:33:17.851Z,4.60
2018-03-27T03:35:45.498Z,4.60
2018-03-27T03:38:13.837Z,4.50
2018-03-27T03:40:41.361Z,4.50
2018-03-27T03:43:09.606Z,4.50
2018-03-27T03:45:37.133Z,4.50
2018-03-27T03:48:04.922Z,4.40
2018-03-27T03:50:32.475Z,4.40
2018-03-27T03:53:00.084Z,4.40
2018-03-27T03:55:27.674Z,4.30
2018-03-27T03:57:55.197Z,4.30
2018-03-27T04:00:22.725Z,4.20
2018-03-27T04:02:50.244Z,4.20
2018-03-27T04:05:17.747Z,4.20
2018-03-27T04:07:45.261Z,4.10
2018-03-27T04:10:13.516Z,3.90
2018-03-27T04:12:41.556Z,3.90
2018-03-27T04:15:09.104Z,3.80
2018-03-27T04:17:37.388Z,3.50
2018-03-27T04:20:04.876Z,3.50
2018-03-27T04:22:32.563Z,3.50
2018-03-27T04:25:00.121Z,3.50
2018-03-27T04:27:27.660Z,3.40
2018-03-27T04:29:55.253Z,3.30
2018-03-27T04:32:23.539Z,3.30
2018-03-27T04:34:51.256Z,3.30
2018-03-27T04:37:18.757Z,3.20
2018-03-27T04:39:46.368Z,3.10
2018-03-27T04:42:13.905Z,3.00
2018-03-27T04:44:41.448Z,2.80
2018-03-27T04:47:08.971Z,2.80
2018-03-27T04:49:37.270Z,2.60
2018-03-27T04:52:05.634Z,2.50
2018-03-27T04:54:33.156Z,2.50
2018-03-27T04:57:00.674Z,2.50
2018-03-27T04:59:28.250Z,2.50
2018-03-27T05:01:56.680Z,2.40
2018-03-27T05:04:24.190Z,2.40
2018-03-27T05:06:51.753Z,2.30
2018-03-27T05:09:19.463Z,2.30
2018-03-27T05:11:47.766Z,2.30
2018-03-27T05:14:16.047Z,2.20
2018-03-27T05:16:44.318Z,2.20
2018-03-27T05:19:11.943Z,2.20
2018-03-27T05:21:39.468Z,2.20
2018-03-27T05:24:06.971Z,2.20
2018-03-27T05:26:34.476Z,2.20
2018-03-27T05:29:01.958Z,2.20
2018-03-27T05:31:29.494Z,2.30
2018-03-27T05:33:57.236Z,2.30
2018-03-27T05:36:25.567Z,2.40
2018-03-27T05:38:53.053Z,2.40
2018-03-27T05:41:20.828Z,2.40
2018-03-27T05:43:48.319Z,2.50
2018-03-27T05:46:15.808Z,2.50
2018-03-27T05:48:44.120Z,2.60
2018-03-27T05:51:11.672Z,2.50
2018-03-27T05:53:40.291Z,2.70
2018-03-27T05:56:07.798Z,2.70
2018-03-27T05:58:35.317Z,2.70
2018-03-27T06:01:03.650Z,2.90
2018-03-27T06:03:31.213Z,2.80
2018-03-27T06:05:58.728Z,2.90
2018-03-27T06:08:26.342Z,2.90
2018-03-27T06:10:53.983Z,3.00
2018-03-27T06:13:21.796Z,3.00
2018-03-27T06:15:49.448Z,3.10
2018-03-27T06:18:16.992Z,3.10
2018-03-27T06:20:44.545Z,3.20
2018-03-27T06:23:12.095Z,3.20
2018-03-27T06:25:39.629Z,3.20
2018-03-27T06:28:07.154Z,3.30
2018-03-27T06:30:34.692Z,3.30
2018-03-27T06:33:02.372Z,3.30
2018-03-27T06:35:30.700Z,3.50
2018-03-27T06:37:58.370Z,3.40
2018-03-27T06:40:26.069Z,3.50
2018-03-27T06:42:54.448Z,3.60
2018-03-27T06:45:22.059Z,3.60
2018-03-27T06:47:49.754Z,3.70
2018-03-27T06:50:18.235Z,3.80
2018-03-27T06:52:46.032Z,3.80
2018-03-27T06:55:13.612Z,3.90
2018-03-27T06:57:41.232Z,3.90
2018-03-27T07:00:09.492Z,3.90
2018-03-27T07:02:36.992Z,3.90
2018-03-27T07:05:05.306Z,6.10
2018-03-27T07:07:32.876Z,6.10
2018-03-27T07:10:00.466Z,5.90
2018-03-27T07:12:27.959Z,5.70
2018-03-27T07:14:55.721Z,5.30
2018-03-27T07:17:23.305Z,5.00
2018-03-27T07:19:50.785Z,4.80
2018-03-27T07:22:19.424Z,4.70
2018-03-27T07:24:46.945Z,4.70
2018-03-27T07:27:15.268Z,4.60
2018-03-27T07:29:43.529Z,4.70
2018-03-27T07:32:11.188Z,4.70
2018-03-27T07:34:38.711Z,4.60
2018-03-27T07:37:06.285Z,4.60
2018-03-27T07:39:33.795Z,4.70
2018-03-27T07:42:01.426Z,4.70
2018-03-27T07:44:29.022Z,4.80
2018-03-27T07:46:56.565Z,4.80
2018-03-27T07:49:24.171Z,4.90
2018-03-27T07:51:51.718Z,4.90
2018-03-27T07:54:24.054Z,5.00
2018-03-27T07:56:51.595Z,5.10
2018-03-27T07:59:19.138Z,5.10
2018-03-27T08:01:46.670Z,5.10
2018-03-27T08:04:14.482Z,5.10
2018-03-27T08:06:42.014Z,5.10
2018-03-27T08:09:09.551Z,5.10
2018-03-27T08:11:37.078Z,5.10
2018-03-27T08:14:05.337Z,5.00
2018-03-27T08:16:32.842Z,5.00
2018-03-27T08:19:01.188Z,5.00
2018-03-27T08:21:28.702Z,5.00
2018-03-27T08:23:56.974Z,5.00
2018-03-27T08:26:24.713Z,5.00
2018-03-27T08:28:52.230Z,5.10
2018-03-27T08:31:20.514Z,5.10
2018-03-27T08:33:48.066Z,5.10
2018-03-27T08:36:15.964Z,5.00
2018-03-27T08:38:43.418Z,5.10
2018-03-27T08:41:10.922Z,5.20
2018-03-27T08:43:38.487Z,5.20
2018-03-27T08:46:07.162Z,5.20
2018-03-27T08:48:34.703Z,5.20
2018-03-27T08:51:02.179Z,5.20
2018-03-27T08:53:29.670Z,5.20
2018-03-27T08:55:57.333Z,5.30
2018-03-27T08:58:24.913Z,5.30
2018-03-27T09:00:52.381Z,5.40
2018-03-27T09:03:19.918Z,5.50
2018-03-27T09:05:47.404Z,5.60
2018-03-27T09:08:14.916Z,5.70
2018-03-27T09:10:43.235Z,5.90
2018-03-27T09:13:10.743Z,5.90
2018-03-27T09:15:38.317Z,6.10
2018-03-27T09:18:05.786Z,6.20
2018-03-27T09:20:33.281Z,6.30
2018-03-27T09:23:00.761Z,6.40
2018-03-27T09:25:28.982Z,6.60
2018-03-27T09:27:56.625Z,6.60
2018-03-27T09:30:25.020Z,6.90
2018-03-27T09:32:52.509Z,6.90
2018-03-27T09:35:20.129Z,7.00
2018-03-27T09:37:48.412Z,7.00
2018-03-27T09:40:15.963Z,7.00
2018-03-27T09:42:43.468Z,7.00
2018-03-27T09:45:10.970Z,7.00
2018-03-27T09:47:38.465Z,6.90
2018-03-27T09:50:06.085Z,6.80
2018-03-27T09:52:34.402Z,6.90
2018-03-27T09:55:01.924Z,6.80
2018-03-27T09:57:29.479Z,6.90
2018-03-27T09:59:56.998Z,7.10
2018-03-27T10:02:25.252Z,8.70
2018-03-27T10:04:52.782Z,8.70
2018-03-27T10:07:20.295Z,9.30
2018-03-27T10:09:47.917Z,9.60
2018-03-27T10:12:15.386Z,9.70
2018-03-27T10:14:43.688Z,9.40
2018-03-27T10:17:11.192Z,9.40
2018-03-27T10:19:38.837Z,9.30
2018-03-27T10:22:06.356Z,9.20
2018-03-27T10:24:33.942Z,9.20
2018-03-27T10:27:02.223Z,9.10
2018-03-27T10:29:30.530Z,9.10
2018-03-27T10:31:58.809Z,9.00
2018-03-27T10:34:27.084Z,8.90
2018-03-27T10:36:55.490Z,8.90
2018-03-27T10:39:23.770Z,8.80
2018-03-27T10:41:52.089Z,8.80
2018-03-27T10:44:19.737Z,8.80
2018-03-27T10:46:48.030Z,8.90
2018-03-27T10:49:16.436Z,9.00
2018-03-27T10:51:44.594Z,9.00
2018-03-27T10:54:12.859Z,9.30
2018-03-27T10:56:40.376Z,9.30
2018-03-27T10:59:07.892Z,9.60
2018-03-27T11:01:35.375Z,9.90
2018-03-27T11:04:04.533Z,10.50
2018-03-27T11:06:32.038Z,10.50
2018-03-27T11:08:59.578Z,11.20
2018-03-27T11:11:27.076Z,11.80
2018-03-27T11:13:54.710Z,11.90
2018-03-27T11:16:22.305Z,12.00
2018-03-27T11:18:49.873Z,12.00
2018-03-27T11:21:17.386Z,12.00
2018-03-27T11:23:44.957Z,11.80
2018-03-27T11:26:12.476Z,11.40
2018-03-27T11:28:39.989Z,11.10
2018-03-27T11:31:07.589Z,10.70
2018-03-27T11:33:35.851Z,10.10
2018-03-27T11:36:03.381Z,10.10
2018-03-27T11:38:30.902Z,10.10
2018-03-27T11:40:58.537Z,10.00
2018-03-27T11:43:26.030Z,9.90
2018-03-27T11:45:53.645Z,9.80
2018-03-27T11:48:21.948Z,9.50
2018-03-27T11:50:49.504Z,9.50
2018-03-27T11:53:17.032Z,9.50
2018-03-27T11:55:44.569Z,9.40
2018-03-27T11:58:12.105Z,9.30
2018-03-27T12:00:39.806Z,9.30
2018-03-27T12:03:07.348Z,9.20
2018-03-27T12:05:36.366Z,9.20
2018-03-27T12:08:04.721Z,9.10
2018-03-27T12:10:32.367Z,9.10
2018-03-27T12:13:00.032Z,9.00
2018-03-27T12:15:27.533Z,9.00
2018-03-27T12:17:55.058Z,9.00
2018-03-27T12:20:22.607Z,8.90
2018-03-27T12:22:50.895Z,8.70
2018-03-27T12:25:19.238Z,8.60
2018-03-27T12:27:46.805Z,8.70
2018-03-27T12:30:14.288Z,8.60
2018-03-27T12:32:41.864Z,8.60
2018-03-27T12:35:09.400Z,8.60
2018-03-27T12:37:36.891Z,8.60
2018-03-27T12:40:04.424Z,8.60
2018-03-27T12:42:33.558Z,8.60
2018-03-27T12:45:01.118Z,8.60
2018-03-27T12:47:28.923Z,8.70
2018-03-27T12:49:56.546Z,8.70
2018-03-27T12:52:24.805Z,8.60
2018-03-27T12:54:52.322Z,8.60
2018-03-27T12:57:19.833Z,8.60
2018-03-27T12:59:47.364Z,8.70
2018-03-27T13:02:14.883Z,8.70
2018-03-27T13:04:42.770Z,8.70
2018-03-27T13:07:10.289Z,8.80
2018-03-27T13:09:37.792Z,8.80
2018-03-27T13:12:05.295Z,8.80
2018-03-27T13:14:33.623Z,8.70
2018-03-27T13:17:01.223Z,8.70
2018-03-27T13:19:28.701Z,8.80
2018-03-27T13:21:56.193Z,8.70
2018-03-27T13:24:23.717Z,8.70
2018-03-27T13:26:51.238Z,8.70
2018-03-27T13:29:19.540Z,8.70
2018-03-27T13:31:47.049Z,8.60
2018-03-27T13:34:15.489Z,8.70
2018-03-27T13:36:43.746Z,8.70
2018-03-27T13:39:11.349Z,8.70
2018-03-27T13:41:38.845Z,8.70
2018-03-27T13:44:06.562Z,8.70
2018-03-27T13:46:34.043Z,8.70
2018-03-27T13:49:01.566Z,8.90
2018-03-27T13:51:29.078Z,8.90
2018-03-27T13:53:56.573Z,9.00
2018-03-27T13:56:24.906Z,9.40
2018-03-27T13:58:52.386Z,9.40
2018-03-27T14:01:19.926Z,9.70
2018-03-27T14:03:47.522Z,10.10
2018-03-27T14:06:15.070Z,10.50
2018-03-27T14:08:42.571Z,10.80
2018-03-27T14:11:10.098Z,11.10
2018-03-27T14:13:38.358Z,11.40
2018-03-27T14:16:05.890Z,11.40
2018-03-27T14:18:33.405Z,11.30
2018-03-27T14:21:01.028Z,11.10
2018-03-27T14:23:28.551Z,10.90
2018-03-27T14:25:56.080Z,10.80
2018-03-27T14:28:23.625Z,10.90
2018-03-27T14:30:52.023Z,11.00
2018-03-27T14:33:19.580Z,11.20
2018-03-27T14:35:47.914Z,11.20
2018-03-27T14:38:15.443Z,11.10
2018-03-27T14:40:42.961Z,11.10
2018-03-27T14:43:10.659Z,11.00
2018-03-27T14:45:38.415Z,11.00
2018-03-27T14:48:06.003Z,11.00
2018-03-27T14:50:33.536Z,11.20
2018-03-27T14:53:01.073Z,11.20
2018-03-27T14:55:29.335Z,11.40
2018-03-27T14:57:57.147Z,11.40
2018-03-27T15:00:24.644Z,11.40
2018-03-27T15:02:52.129Z,11.50
2018-03-27T15:05:19.826Z,11.60
2018-03-27T15:07:47.507Z,11.70
2018-03-27T15:10:15.030Z,11.70
2018-03-27T15:12:42.580Z,11.60
2018-03-27T15:15:10.138Z,11.60
2018-03-27T15:17:38.425Z,11.50
2018-03-27T15:20:06.726Z,11.50
2018-03-27T15:22:34.302Z,11.50
2018-03-27T15:25:02.396Z,11.50
2018-03-27T15:27:29.924Z,11.50
2018-03-27T15:29:57.463Z,11.50
2018-03-27T15:32:25.106Z,11.50
2018-03-27T15:34:52.605Z,11.50
2018-03-27T15:37:20.640Z,11.50
2018-03-27T15:39:49.017Z,11.40
2018-03-27T15:42:16.545Z,11.40
2018-03-27T15:44:44.086Z,11.20
2018-03-27T15:47:11.595Z,11.10
2018-03-27T15:49:39.151Z,11.10
2018-03-27T15:52:06.649Z,11.10
2018-03-27T15:54:34.165Z,11.00
2018-03-27T15:57:01.709Z,11.00
2018-03-27T15:59:30.014Z,11.00
2018-03-27T16:01:57.518Z,11.00
2018-03-27T16:04:25.046Z,11.00
2018-03-27T16:06:53.337Z,11.00
2018-03-27T16:09:20.859Z,11.00
2018-03-27T16:11:48.342Z,11.00
2018-03-27T16:14:15.914Z,10.90
2018-03-27T16:16:43.439Z,10.90
2018-03-27T16:19:11.012Z,10.80
2018-03-27T16:21:38.532Z,10.80
2018-03-27T16:24:06.042Z,10.70
2018-03-27T16:26:33.872Z,10.60
2018-03-27T16:29:01.422Z,10.50
2018-03-27T16:31:29.075Z,10.40
2018-03-27T16:33:56.569Z,10.30
2018-03-27T16:36:24.235Z,10.20
2018-03-27T16:38:51.785Z,10.10
2018-03-27T16:41:19.387Z,10.00
2018-03-27T16:43:46.909Z,9.90
2018-03-27T16:46:15.188Z,9.60
2018-03-27T16:48:42.720Z,9.60
2018-03-27T16:51:10.242Z,9.50
2018-03-27T16:53:39.187Z,9.40
2018-03-27T16:56:06.778Z,9.40
2018-03-27T16:58:34.222Z,9.30
2018-03-27T17:01:01.751Z,9.30
2018-03-27T17:03:30.020Z,9.10
2018-03-27T17:05:57.693Z,9.10
2018-03-27T17:08:25.241Z,9.00
2018-03-27T17:10:52.857Z,8.90
2018-03-27T17:13:21.171Z,8.80
2018-03-27T17:15:48.717Z,8.80
2018-03-27T17:18:17.009Z,8.70
2018-03-27T17:20:45.517Z,8.60
2018-03-27T17:23:13.008Z,8.60
2018-03-27T17:25:40.571Z,8.50
2018-03-27T17:28:08.350Z,8.50
2018-03-27T17:30:35.914Z,8.50
2018-03-27T17:33:03.520Z,8.40
2018-03-27T17:35:31.032Z,8.40
2018-03-27T17:37:59.500Z,8.30
2018-03-27T17:40:28.560Z,8.20
2018-03-27T17:42:56.107Z,8.20
2018-03-27T17:45:24.565Z,8.10
2018-03-27T17:47:52.189Z,8.10
2018-03-27T17:50:20.065Z,8.00
2018-03-27T17:52:47.935Z,7.90
2018-03-27T17:55:15.522Z,7.80
2018-03-27T17:57:43.008Z,7.80
2018-03-27T18:00:10.573Z,7.70
2018-03-27T18:02:38.114Z,7.70
2018-03-27T18:05:06.426Z,7.60
2018-03-27T18:07:33.950Z,7.60
2018-03-27T18:10:02.991Z,7.50
2018-03-27T18:12:30.509Z,7.50
2018-03-27T18:14:58.064Z,7.50
2018-03-27T18:17:25.627Z,7.50
2018-03-27T18:19:53.162Z,7.40
2018-03-27T18:22:21.473Z,7.20
2018-03-27T18:24:49.021Z,7.20
2018-03-27T18:27:17.441Z,7.10
2018-03-27T18:29:44.962Z,7.10
2018-03-27T18:32:12.574Z,7.10
2018-03-27T18:34:40.343Z,7.10
2018-03-27T18:37:08.733Z,7.10
2018-03-27T18:39:37.023Z,7.10
2018-03-27T18:42:04.916Z,7.10
2018-03-27T18:44:32.450Z,7.10
2018-03-27T18:47:00.051Z,7.10
2018-03-27T18:49:27.980Z,7.00
2018-03-27T18:51:55.519Z,7.00
2018-03-27T18:54:23.139Z,7.00
2018-03-27T18:56:50.840Z,6.90
2018-03-27T18:59:18.428Z,6.90
2018-03-27T19:01:45.949Z,6.80
2018-03-27T19:04:13.825Z,6.80
2018-03-27T19:06:41.572Z,6.80
2018-03-27T19:09:09.206Z,6.80
2018-03-27T19:11:37.601Z,6.80
2018-03-27T19:14:06.140Z,6.70
2018-03-27T19:16:33.896Z,6.70
2018-03-27T19:19:02.582Z,6.70
2018-03-27T19:21:31.192Z,6.70
2018-03-27T19:23:58.728Z,6.70
2018-03-27T19:26:27.010Z,6.70
2018-03-27T19:28:54.583Z,6.70
2018-03-27T19:31:23.211Z,6.70
2018-03-27T19:33:50.925Z,6.60
2018-03-27T19:36:18.467Z,6.60
2018-03-27T19:38:46.266Z,6.60
2018-03-27T19:41:13.884Z,6.60
2018-03-27T19:43:41.686Z,6.60
2018-03-27T19:46:09.610Z,6.60
2018-03-27T19:48:37.461Z,6.50
2018-03-27T19:51:05.205Z,6.50
2018-03-27T19:53:33.483Z,6.40
2018-03-27T19:56:02.094Z,6.40
2018-03-27T19:58:30.618Z,6.40
2018-03-27T20:00:58.298Z,6.40
2018-03-27T20:03:26.031Z,6.30
2018-03-27T20:05:54.309Z,6.20
2018-03-27T20:08:23.301Z,6.20
2018-03-27T20:10:50.857Z,6.20
2018-03-27T20:13:18.479Z,6.20
2018-03-27T20:15:46.267Z,6.10
2018-03-27T20:18:13.996Z,6.10
2018-03-27T20:20:41.600Z,6.00
2018-03-27T20:23:09.325Z,6.00
2018-03-27T20:25:37.103Z,6.00
2018-03-27T20:28:04.680Z,5.90
2018-03-27T20:30:32.457Z,6.10
2018-03-27T20:33:00.045Z,8.90
2018-03-27T20:35:28.391Z,11.70
2018-03-27T20:37:55.949Z,11.70
2018-03-27T20:40:23.534Z,12.60
2018-03-27T20:42:51.326Z,12.60
2018-03-27T20:45:18.871Z,12.20
2018-03-27T20:47:46.548Z,11.30
2018-03-27T20:50:14.211Z,10.30
2018-03-27T20:52:44.944Z,9.40
2018-03-27T20:55:12.874Z,8.70
2018-03-27T20:57:40.428Z,8.10
2018-03-27T21:00:07.995Z,7.70
2018-03-27T21:02:35.600Z,7.50
2018-03-27T21:05:04.016Z,6.90
2018-03-27T21:07:32.296Z,6.70
2018-03-27T21:10:00.596Z,6.60
2018-03-27T21:12:28.982Z,6.40
2018-03-27T21:14:56.479Z,6.40
2018-03-27T21:17:24.262Z,6.30
2018-03-27T21:19:51.806Z,6.30
2018-03-27T21:22:20.060Z,6.10
2018-03-27T21:24:47.676Z,6.10
2018-03-27T21:27:15.312Z,6.00
2018-03-27T21:29:42.946Z,5.90
2018-03-27T21:32:10.462Z,5.80
2018-03-27T21:34:37.984Z,5.70
2018-03-27T21:37:05.545Z,5.60
2018-03-27T21:39:33.124Z,5.50
2018-03-27T21:42:00.740Z,5.40
2018-03-27T21:44:28.294Z,5.30
2018-03-27T21:46:55.837Z,5.30
2018-03-27T21:49:23.400Z,5.20
2018-03-27T21:51:50.996Z,5.20
2018-03-27T21:54:18.504Z,5.20
2018-03-27T21:56:46.052Z,5.10
2018-03-27T21:59:13.574Z,5.00
2018-03-27T22:01:41.244Z,4.90
2018-03-27T22:04:09.438Z,4.90
2018-03-27T22:06:37.004Z,4.80
2018-03-27T22:09:05.269Z,4.70
2018-03-27T22:11:32.812Z,4.70
2018-03-27T22:14:00.378Z,4.70
2018-03-27T22:16:28.651Z,4.60
2018-03-27T22:18:56.152Z,4.60
2018-03-27T22:21:23.670Z,4.50
2018-03-27T22:23:51.181Z,4.50
2018-03-27T22:26:18.730Z,4.50
2018-03-27T22:28:46.437Z,4.50
2018-03-27T22:31:14.026Z,4.40
2018-03-27T22:33:41.589Z,4.40
2018-03-27T22:36:09.111Z,4.40
2018-03-27T22:38:36.661Z,4.30
2018-03-27T22:41:05.046Z,4.30
2018-03-27T22:43:33.337Z,4.20
2018-03-27T22:46:01.171Z,4.20
2018-03-27T22:48:28.742Z,4.20
2018-03-27T22:50:56.276Z,4.20
2018-03-27T22:53:24.772Z,4.10
2018-03-27T22:55:52.408Z,4.10
2018-03-27T22:58:19.942Z,4.10
2018-03-27T23:00:47.671Z,4.10
2018-03-27T23:03:15.952Z,4.00
2018-03-27T23:05:43.488Z,4.00
2018-03-27T23:08:11.022Z,4.00
2018-03-27T23:10:38.610Z,4.00
2018-03-27T23:13:06.160Z,4.00
2018-03-27T23:15:34.449Z,4.00
2018-03-27T23:18:01.968Z,4.00
2018-03-27T23:20:29.467Z,4.00
2018-03-27T23:22:58.609Z,4.00
2018-03-27T23:25:26.120Z,4.00
2018-03-27T23:27:53.747Z,4.00
2018-03-27T23:30:21.270Z,4.00
2018-03-27T23:32:48.789Z,4.00
2018-03-27T23:35:16.339Z,4.00
2018-03-27T23:37:44.633Z,4.00
2018-03-27T23:40:12.429Z,3.90
2018-03-27T23:42:40.715Z,4.00
2018-03-27T23:45:08.495Z,4.00
2018-03-27T23:47:35.999Z,4.00
2018-03-27T23:50:03.531Z,4.00
2018-03-27T23:52:31.912Z,4.00
2018-03-27T23:54:59.425Z,4.00
2018-03-27T23:57:27.112Z,4.00
2018-03-27T23:59:54.948Z,4.10
